<?xml version="1.0" encoding="UTF-8" standalone="no" ?>
<gpx xmlns="http://www.topografix.com/GPX/1/1" xmlns:xsi="http://www.w3.org/2001/XMLSchema-instance" xsi:schemaLocation="http://www.topografix.com/GPX/1/1 http://www.topografix.com/GPX/1/1/gpx.xsd" version="1.1" creator="VisuGPX - https://www.visugpx.com">
  <metadata>
    <name>boucles beaumont</name>
    <desc><![CDATA[boucles beaumont du périgord]]></desc>
  </metadata>
  <trk>
    <name><![CDATA[BBmt21]]></name>
    <trkseg>
      <trkpt lat="44.77825" lon="0.78405">
        <ele>126</ele>
        <time>2008-12-18T13:16:21Z</time>
      </trkpt>
      <trkpt lat="44.77833" lon="0.78433">
        <ele>126</ele>
        <time>2008-12-18T13:16:33Z</time>
      </trkpt>
      <trkpt lat="44.77835" lon="0.7846">
        <ele>126</ele>
        <time>2008-12-18T13:16:38Z</time>
      </trkpt>
      <trkpt lat="44.7784" lon="0.7849">
        <ele>125</ele>
        <time>2008-12-18T13:16:44Z</time>
      </trkpt>
      <trkpt lat="44.77848" lon="0.78518">
        <ele>120</ele>
        <time>2008-12-18T13:16:50Z</time>
      </trkpt>
      <trkpt lat="44.77858" lon="0.78545">
        <ele>117</ele>
        <time>2008-12-18T13:16:57Z</time>
      </trkpt>
      <trkpt lat="44.77873" lon="0.78568">
        <ele>119</ele>
        <time>2008-12-18T13:17:03Z</time>
      </trkpt>
      <trkpt lat="44.77888" lon="0.78583">
        <ele>119</ele>
        <time>2008-12-18T13:17:08Z</time>
      </trkpt>
      <trkpt lat="44.77898" lon="0.78605">
        <ele>119</ele>
        <time>2008-12-18T13:17:13Z</time>
      </trkpt>
      <trkpt lat="44.77908" lon="0.78628">
        <ele>117</ele>
        <time>2008-12-18T13:17:24Z</time>
      </trkpt>
      <trkpt lat="44.77908" lon="0.78658">
        <ele>115</ele>
        <time>2008-12-18T13:17:29Z</time>
      </trkpt>
      <trkpt lat="44.77905" lon="0.78688">
        <ele>110</ele>
        <time>2008-12-18T13:17:35Z</time>
      </trkpt>
      <trkpt lat="44.77908" lon="0.78718">
        <ele>102</ele>
        <time>2008-12-18T13:17:42Z</time>
      </trkpt>
      <trkpt lat="44.77908" lon="0.78745">
        <ele>92</ele>
        <time>2008-12-18T13:17:48Z</time>
      </trkpt>
      <trkpt lat="44.77915" lon="0.7877">
        <ele>86</ele>
        <time>2008-12-18T13:18:00Z</time>
      </trkpt>
      <trkpt lat="44.77928" lon="0.78793">
        <ele>85</ele>
        <time>2008-12-18T13:18:06Z</time>
      </trkpt>
      <trkpt lat="44.77943" lon="0.78813">
        <ele>86</ele>
        <time>2008-12-18T13:18:12Z</time>
      </trkpt>
      <trkpt lat="44.77955" lon="0.78833">
        <ele>83</ele>
        <time>2008-12-18T13:20:30Z</time>
      </trkpt>
      <trkpt lat="44.77968" lon="0.78853">
        <ele>89</ele>
        <time>2008-12-18T13:21:08Z</time>
      </trkpt>
      <trkpt lat="44.77985" lon="0.78865">
        <ele>80</ele>
        <time>2008-12-18T13:21:22Z</time>
      </trkpt>
      <trkpt lat="44.78003" lon="0.78878">
        <ele>75</ele>
        <time>2008-12-18T13:21:33Z</time>
      </trkpt>
      <trkpt lat="44.78025" lon="0.78883">
        <ele>75</ele>
        <time>2008-12-18T13:21:40Z</time>
      </trkpt>
      <trkpt lat="44.78045" lon="0.78883">
        <ele>72</ele>
        <time>2008-12-18T13:21:47Z</time>
      </trkpt>
      <trkpt lat="44.78065" lon="0.78875">
        <ele>69</ele>
        <time>2008-12-18T13:21:52Z</time>
      </trkpt>
      <trkpt lat="44.78085" lon="0.78873">
        <ele>68</ele>
        <time>2008-12-18T13:21:56Z</time>
      </trkpt>
      <trkpt lat="44.78108" lon="0.78875">
        <ele>67</ele>
        <time>2008-12-18T13:22:01Z</time>
      </trkpt>
      <trkpt lat="44.7813" lon="0.78873">
        <ele>69</ele>
        <time>2008-12-18T13:22:07Z</time>
      </trkpt>
      <trkpt lat="44.78153" lon="0.78878">
        <ele>70</ele>
        <time>2008-12-18T13:22:12Z</time>
      </trkpt>
      <trkpt lat="44.78173" lon="0.7889">
        <ele>71</ele>
        <time>2008-12-18T13:22:16Z</time>
      </trkpt>
      <trkpt lat="44.7819" lon="0.78903">
        <ele>71</ele>
        <time>2008-12-18T13:22:20Z</time>
      </trkpt>
      <trkpt lat="44.78208" lon="0.78918">
        <ele>72</ele>
        <time>2008-12-18T13:22:23Z</time>
      </trkpt>
      <trkpt lat="44.7822" lon="0.78925">
        <ele>70</ele>
        <time>2008-12-18T13:25:27Z</time>
      </trkpt>
      <trkpt lat="44.78238" lon="0.7895">
        <ele>77</ele>
        <time>2008-12-18T13:28:23Z</time>
      </trkpt>
      <trkpt lat="44.7826" lon="0.78978">
        <ele>73</ele>
        <time>2008-12-18T13:29:09Z</time>
      </trkpt>
      <trkpt lat="44.78275" lon="0.78998">
        <ele>73</ele>
        <time>2008-12-18T13:29:12Z</time>
      </trkpt>
      <trkpt lat="44.7829" lon="0.79018">
        <ele>77</ele>
        <time>2008-12-18T13:29:15Z</time>
      </trkpt>
      <trkpt lat="44.78303" lon="0.79043">
        <ele>80</ele>
        <time>2008-12-18T13:29:20Z</time>
      </trkpt>
      <trkpt lat="44.78305" lon="0.7907">
        <ele>84</ele>
        <time>2008-12-18T13:29:26Z</time>
      </trkpt>
      <trkpt lat="44.78303" lon="0.791">
        <ele>87</ele>
        <time>2008-12-18T13:29:31Z</time>
      </trkpt>
      <trkpt lat="44.783" lon="0.7913">
        <ele>91</ele>
        <time>2008-12-18T13:29:36Z</time>
      </trkpt>
      <trkpt lat="44.783" lon="0.7916">
        <ele>92</ele>
        <time>2008-12-18T13:29:39Z</time>
      </trkpt>
      <trkpt lat="44.783" lon="0.7919">
        <ele>92</ele>
        <time>2008-12-18T13:29:42Z</time>
      </trkpt>
      <trkpt lat="44.78303" lon="0.7922">
        <ele>92</ele>
        <time>2008-12-18T13:29:45Z</time>
      </trkpt>
      <trkpt lat="44.7831" lon="0.79248">
        <ele>95</ele>
        <time>2008-12-18T13:29:48Z</time>
      </trkpt>
      <trkpt lat="44.78318" lon="0.79278">
        <ele>100</ele>
        <time>2008-12-18T13:29:51Z</time>
      </trkpt>
      <trkpt lat="44.78323" lon="0.79308">
        <ele>102</ele>
        <time>2008-12-18T13:29:54Z</time>
      </trkpt>
      <trkpt lat="44.78328" lon="0.79343">
        <ele>103</ele>
        <time>2008-12-18T13:29:57Z</time>
      </trkpt>
      <trkpt lat="44.78335" lon="0.79373">
        <ele>104</ele>
        <time>2008-12-18T13:30:00Z</time>
      </trkpt>
      <trkpt lat="44.7834" lon="0.79403">
        <ele>105</ele>
        <time>2008-12-18T13:30:03Z</time>
      </trkpt>
      <trkpt lat="44.78353" lon="0.79423">
        <ele>109</ele>
        <time>2008-12-18T13:30:06Z</time>
      </trkpt>
      <trkpt lat="44.7837" lon="0.7944">
        <ele>113</ele>
        <time>2008-12-18T13:30:09Z</time>
      </trkpt>
      <trkpt lat="44.7839" lon="0.79453">
        <ele>115</ele>
        <time>2008-12-18T13:30:12Z</time>
      </trkpt>
      <trkpt lat="44.78408" lon="0.7946">
        <ele>116</ele>
        <time>2008-12-18T13:30:15Z</time>
      </trkpt>
      <trkpt lat="44.78425" lon="0.7947">
        <ele>115</ele>
        <time>2008-12-18T13:30:55Z</time>
      </trkpt>
      <trkpt lat="44.78445" lon="0.79488">
        <ele>116</ele>
        <time>2008-12-18T13:31:06Z</time>
      </trkpt>
      <trkpt lat="44.78465" lon="0.79503">
        <ele>118</ele>
        <time>2008-12-18T13:31:09Z</time>
      </trkpt>
      <trkpt lat="44.78488" lon="0.7952">
        <ele>119</ele>
        <time>2008-12-18T13:31:12Z</time>
      </trkpt>
      <trkpt lat="44.78508" lon="0.7954">
        <ele>121</ele>
        <time>2008-12-18T13:31:15Z</time>
      </trkpt>
      <trkpt lat="44.78528" lon="0.79558">
        <ele>123</ele>
        <time>2008-12-18T13:31:18Z</time>
      </trkpt>
      <trkpt lat="44.78548" lon="0.79575">
        <ele>124</ele>
        <time>2008-12-18T13:31:20Z</time>
      </trkpt>
      <trkpt lat="44.78568" lon="0.7959">
        <ele>126</ele>
        <time>2008-12-18T13:31:24Z</time>
      </trkpt>
      <trkpt lat="44.78588" lon="0.79608">
        <ele>129</ele>
        <time>2008-12-18T13:31:27Z</time>
      </trkpt>
      <trkpt lat="44.78605" lon="0.7963">
        <ele>133</ele>
        <time>2008-12-18T13:31:30Z</time>
      </trkpt>
      <trkpt lat="44.78623" lon="0.79653">
        <ele>138</ele>
        <time>2008-12-18T13:31:33Z</time>
      </trkpt>
      <trkpt lat="44.7864" lon="0.79675">
        <ele>140</ele>
        <time>2008-12-18T13:31:36Z</time>
      </trkpt>
      <trkpt lat="44.78658" lon="0.79695">
        <ele>142</ele>
        <time>2008-12-18T13:31:39Z</time>
      </trkpt>
      <trkpt lat="44.78675" lon="0.79715">
        <ele>145</ele>
        <time>2008-12-18T13:31:42Z</time>
      </trkpt>
      <trkpt lat="44.78688" lon="0.79735">
        <ele>148</ele>
        <time>2008-12-18T13:31:45Z</time>
      </trkpt>
      <trkpt lat="44.78703" lon="0.79753">
        <ele>150</ele>
        <time>2008-12-18T13:31:49Z</time>
      </trkpt>
      <trkpt lat="44.78718" lon="0.79775">
        <ele>152</ele>
        <time>2008-12-18T13:31:52Z</time>
      </trkpt>
      <trkpt lat="44.78735" lon="0.798">
        <ele>153</ele>
        <time>2008-12-18T13:31:55Z</time>
      </trkpt>
      <trkpt lat="44.7875" lon="0.7982">
        <ele>155</ele>
        <time>2008-12-18T13:32:05Z</time>
      </trkpt>
      <trkpt lat="44.78765" lon="0.79835">
        <ele>155</ele>
        <time>2008-12-18T13:32:17Z</time>
      </trkpt>
      <trkpt lat="44.78783" lon="0.7985">
        <ele>155</ele>
        <time>2008-12-18T13:32:22Z</time>
      </trkpt>
      <trkpt lat="44.78798" lon="0.7987">
        <ele>156</ele>
        <time>2008-12-18T13:32:29Z</time>
      </trkpt>
      <trkpt lat="44.78813" lon="0.79885">
        <ele>155</ele>
        <time>2008-12-18T13:32:37Z</time>
      </trkpt>
      <trkpt lat="44.78828" lon="0.79903">
        <ele>153</ele>
        <time>2008-12-18T13:32:45Z</time>
      </trkpt>
      <trkpt lat="44.78845" lon="0.7991">
        <ele>152</ele>
        <time>2008-12-18T13:32:53Z</time>
      </trkpt>
      <trkpt lat="44.78853" lon="0.79935">
        <ele>150</ele>
        <time>2008-12-18T13:33:01Z</time>
      </trkpt>
      <trkpt lat="44.7886" lon="0.7996">
        <ele>151</ele>
        <time>2008-12-18T13:33:08Z</time>
      </trkpt>
      <trkpt lat="44.78878" lon="0.79973">
        <ele>151</ele>
        <time>2008-12-18T13:33:14Z</time>
      </trkpt>
      <trkpt lat="44.78893" lon="0.79988">
        <ele>153</ele>
        <time>2008-12-18T13:33:20Z</time>
      </trkpt>
      <trkpt lat="44.7891" lon="0.79998">
        <ele>152</ele>
        <time>2008-12-18T13:33:26Z</time>
      </trkpt>
      <trkpt lat="44.7893" lon="0.79995">
        <ele>147</ele>
        <time>2008-12-18T13:33:33Z</time>
      </trkpt>
      <trkpt lat="44.78935" lon="0.79968">
        <ele>146</ele>
        <time>2008-12-18T13:33:40Z</time>
      </trkpt>
      <trkpt lat="44.78938" lon="0.79938">
        <ele>145</ele>
        <time>2008-12-18T13:33:46Z</time>
      </trkpt>
      <trkpt lat="44.78948" lon="0.79915">
        <ele>145</ele>
        <time>2008-12-18T13:33:51Z</time>
      </trkpt>
      <trkpt lat="44.7896" lon="0.79895">
        <ele>143</ele>
        <time>2008-12-18T13:33:56Z</time>
      </trkpt>
      <trkpt lat="44.78978" lon="0.7988">
        <ele>142</ele>
        <time>2008-12-18T13:34:01Z</time>
      </trkpt>
      <trkpt lat="44.78995" lon="0.79873">
        <ele>139</ele>
        <time>2008-12-18T13:34:08Z</time>
      </trkpt>
      <trkpt lat="44.79015" lon="0.79873">
        <ele>143</ele>
        <time>2008-12-18T13:34:14Z</time>
      </trkpt>
      <trkpt lat="44.79038" lon="0.79873">
        <ele>144</ele>
        <time>2008-12-18T13:34:19Z</time>
      </trkpt>
      <trkpt lat="44.79058" lon="0.7987">
        <ele>147</ele>
        <time>2008-12-18T13:34:24Z</time>
      </trkpt>
      <trkpt lat="44.79078" lon="0.7987">
        <ele>148</ele>
        <time>2008-12-18T13:34:30Z</time>
      </trkpt>
      <trkpt lat="44.79095" lon="0.79883">
        <ele>147</ele>
        <time>2008-12-18T13:34:36Z</time>
      </trkpt>
      <trkpt lat="44.79113" lon="0.79898">
        <ele>144</ele>
        <time>2008-12-18T13:34:42Z</time>
      </trkpt>
      <trkpt lat="44.7913" lon="0.79905">
        <ele>139</ele>
        <time>2008-12-18T13:34:48Z</time>
      </trkpt>
      <trkpt lat="44.79145" lon="0.79923">
        <ele>133</ele>
        <time>2008-12-18T13:34:54Z</time>
      </trkpt>
      <trkpt lat="44.79158" lon="0.79948">
        <ele>129</ele>
        <time>2008-12-18T13:35:00Z</time>
      </trkpt>
      <trkpt lat="44.79173" lon="0.79968">
        <ele>124</ele>
        <time>2008-12-18T13:35:05Z</time>
      </trkpt>
      <trkpt lat="44.7919" lon="0.79985">
        <ele>117</ele>
        <time>2008-12-18T13:35:10Z</time>
      </trkpt>
      <trkpt lat="44.792" lon="0.80008">
        <ele>112</ele>
        <time>2008-12-18T13:35:25Z</time>
      </trkpt>
    </trkseg>
  </trk>
</gpx>